sensor_id;sensor_type;location;lat;lon;timestamp;temperature;humidity
13186;DHT22;6658;53.080;7.428;2024-03-07T00:00:07;3.70;99.90
13186;DHT22;6658;53.080;7.428;2024-03-07T00:02:44;3.70;99.90
13186;DHT22;6658;53.080;7.428;2024-03-07T00:05:11;3.60;99.90
13186;DHT22;6658;53.080;7.428;2024-03-07T00:07:38;3.60;99.90
13186;DHT22;6658;53.080;7.428;2024-03-07T00:10:04;3.60;99.90
13186;DHT22;6658;53.080;7.428;2024-03-07T00:12:35;3.50;99.90
13186;DHT22;6658;53.080;7.428;2024-03-07T00:15:03;3.50;99.90
13186;DHT22;6658;53.080;7.428;2024-03-07T00:17:29;3.50;99.90
13186;DHT22;6658;53.080;7.428;2024-03-07T00:19:54;3.40;99.90
13186;DHT22;6658;53.080;7.428;2024-03-07T00:22:20;3.40;99.90
13186;DHT22;6658;53.080;7.428;2024-03-07T00:24:46;3.30;99.90
13186;DHT22;6658;53.080;7.428;2024-03-07T00:27:13;3.30;99.90
13186;DHT22;6658;53.080;7.428;2024-03-07T00:29:41;3.30;99.90
13186;DHT22;6658;53.080;7.428;2024-03-07T00:32:08;3.30;99.90
13186;DHT22;6658;53.080;7.428;2024-03-07T00:34:35;3.20;99.90
13186;DHT22;6658;53.080;7.428;2024-03-07T00:37:01;3.20;99.90
13186;DHT22;6658;53.080;7.428;2024-03-07T00:39:27;3.20;99.90
13186;DHT22;6658;53.080;7.428;2024-03-07T00:41:53;3.00;99.90
13186;DHT22;6658;53.080;7.428;2024-03-07T00:44:19;3.00;99.90
13186;DHT22;6658;53.080;7.428;2024-03-07T00:46:44;2.90;99.90
13186;DHT22;6658;53.080;7.428;2024-03-07T00:49:11;2.80;99.90
13186;DHT22;6658;53.080;7.428;2024-03-07T00:51:37;2.70;99.90
13186;DHT22;6658;53.080;7.428;2024-03-07T00:54:02;2.70;99.90
13186;DHT22;6658;53.080;7.428;2024-03-07T00:56:28;2.60;99.90
13186;DHT22;6658;53.080;7.428;2024-03-07T00:58:54;2.60;99.90
13186;DHT22;6658;53.080;7.428;2024-03-07T01:01:19;2.60;99.90
13186;DHT22;6658;53.080;7.428;2024-03-07T01:03:45;2.60;99.90
13186;DHT22;6658;53.080;7.428;2024-03-07T01:06:11;2.50;99.90
13186;DHT22;6658;53.080;7.428;2024-03-07T01:08:37;2.50;99.90
13186;DHT22;6658;53.080;7.428;2024-03-07T01:11:04;2.40;99.90
13186;DHT22;6658;53.080;7.428;2024-03-07T01:13:40;2.40;99.90
13186;DHT22;6658;53.080;7.428;2024-03-07T01:16:07;2.30;99.90
13186;DHT22;6658;53.080;7.428;2024-03-07T01:18:33;2.30;99.90
13186;DHT22;6658;53.080;7.428;2024-03-07T01:21:03;2.30;99.90
13186;DHT22;6658;53.080;7.428;2024-03-07T01:23:31;2.30;99.90
13186;DHT22;6658;53.080;7.428;2024-03-07T01:25:57;2.30;99.90
13186;DHT22;6658;53.080;7.428;2024-03-07T01:28:24;2.30;99.90
13186;DHT22;6658;53.080;7.428;2024-03-07T01:30:51;2.30;99.90
13186;DHT22;6658;53.080;7.428;2024-03-07T01:33:18;2.30;99.90
13186;DHT22;6658;53.080;7.428;2024-03-07T01:35:44;2.20;99.90
13186;DHT22;6658;53.080;7.428;2024-03-07T01:38:11;2.20;99.90
13186;DHT22;6658;53.080;7.428;2024-03-07T01:40:42;2.20;99.90
13186;DHT22;6658;53.080;7.428;2024-03-07T01:43:09;2.10;99.90
13186;DHT22;6658;53.080;7.428;2024-03-07T01:45:36;2.10;99.90
13186;DHT22;6658;53.080;7.428;2024-03-07T01:48:03;2.00;99.90
13186;DHT22;6658;53.080;7.428;2024-03-07T01:50:30;2.00;99.90
13186;DHT22;6658;53.080;7.428;2024-03-07T01:52:55;1.90;99.90
13186;DHT22;6658;53.080;7.428;2024-03-07T01:55:22;1.90;99.90
13186;DHT22;6658;53.080;7.428;2024-03-07T01:57:50;1.80;99.90
13186;DHT22;6658;53.080;7.428;2024-03-07T02:20:22;1.80;99.90
13186;DHT22;6658;53.080;7.428;2024-03-07T02:22:49;1.80;99.90
13186;DHT22;6658;53.080;7.428;2024-03-07T02:25:16;1.80;99.90
13186;DHT22;6658;53.080;7.428;2024-03-07T02:27:42;1.80;99.90
13186;DHT22;6658;53.080;7.428;2024-03-07T02:30:08;1.70;99.90
13186;DHT22;6658;53.080;7.428;2024-03-07T02:32:37;1.70;99.90
13186;DHT22;6658;53.080;7.428;2024-03-07T02:35:04;1.70;99.90
13186;DHT22;6658;53.080;7.428;2024-03-07T02:37:31;1.70;99.90
13186;DHT22;6658;53.080;7.428;2024-03-07T02:39:56;1.70;99.90
13186;DHT22;6658;53.080;7.428;2024-03-07T02:42:22;1.70;99.90
13186;DHT22;6658;53.080;7.428;2024-03-07T02:44:48;1.70;99.90
13186;DHT22;6658;53.080;7.428;2024-03-07T02:47:13;1.60;99.90
13186;DHT22;6658;53.080;7.428;2024-03-07T02:49:39;1.60;99.90
13186;DHT22;6658;53.080;7.428;2024-03-07T02:52:05;1.60;99.90
13186;DHT22;6658;53.080;7.428;2024-03-07T02:54:33;1.60;99.90
13186;DHT22;6658;53.080;7.428;2024-03-07T02:56:59;1.60;99.90
13186;DHT22;6658;53.080;7.428;2024-03-07T02:59:25;1.60;99.90
13186;DHT22;6658;53.080;7.428;2024-03-07T03:01:51;1.60;99.90
13186;DHT22;6658;53.080;7.428;2024-03-07T03:04:17;1.70;99.90
13186;DHT22;6658;53.080;7.428;2024-03-07T03:06:43;1.80;99.90
13186;DHT22;6658;53.080;7.428;2024-03-07T03:09:09;1.90;99.90
13186;DHT22;6658;53.080;7.428;2024-03-07T03:11:39;2.00;99.90
13186;DHT22;6658;53.080;7.428;2024-03-07T03:14:04;2.00;99.90
13186;DHT22;6658;53.080;7.428;2024-03-07T03:16:30;2.10;99.90
13186;DHT22;6658;53.080;7.428;2024-03-07T03:18:57;2.10;99.90
13186;DHT22;6658;53.080;7.428;2024-03-07T03:21:23;2.10;99.90
13186;DHT22;6658;53.080;7.428;2024-03-07T03:23:49;2.00;99.90
13186;DHT22;6658;53.080;7.428;2024-03-07T03:26:15;2.00;99.90
13186;DHT22;6658;53.080;7.428;2024-03-07T03:28:41;2.10;99.90
13186;DHT22;6658;53.080;7.428;2024-03-07T03:31:07;2.00;99.90
13186;DHT22;6658;53.080;7.428;2024-03-07T03:33:34;2.00;99.90
13186;DHT22;6658;53.080;7.428;2024-03-07T03:36:00;2.00;99.90
13186;DHT22;6658;53.080;7.428;2024-03-07T03:38:26;2.00;99.90
13186;DHT22;6658;53.080;7.428;2024-03-07T03:40:52;2.00;99.90
13186;DHT22;6658;53.080;7.428;2024-03-07T03:43:17;2.00;99.90
13186;DHT22;6658;53.080;7.428;2024-03-07T03:45:44;1.90;99.90
13186;DHT22;6658;53.080;7.428;2024-03-07T03:48:11;1.90;99.90
13186;DHT22;6658;53.080;7.428;2024-03-07T03:50:36;1.90;99.90
13186;DHT22;6658;53.080;7.428;2024-03-07T03:53:02;1.90;99.90
13186;DHT22;6658;53.080;7.428;2024-03-07T03:55:29;2.00;99.90
13186;DHT22;6658;53.080;7.428;2024-03-07T03:57:55;2.00;99.90
13186;DHT22;6658;53.080;7.428;2024-03-07T04:00:21;1.90;99.90
13186;DHT22;6658;53.080;7.428;2024-03-07T04:02:48;1.90;99.90
13186;DHT22;6658;53.080;7.428;2024-03-07T04:05:14;1.90;99.90
13186;DHT22;6658;53.080;7.428;2024-03-07T04:07:41;1.90;99.90
13186;DHT22;6658;53.080;7.428;2024-03-07T04:10:07;1.90;99.90
13186;DHT22;6658;53.080;7.428;2024-03-07T04:12:34;1.90;99.90
13186;DHT22;6658;53.080;7.428;2024-03-07T04:15:00;1.90;99.90
13186;DHT22;6658;53.080;7.428;2024-03-07T04:17:26;1.90;99.90
13186;DHT22;6658;53.080;7.428;2024-03-07T04:19:52;1.80;99.90
13186;DHT22;6658;53.080;7.428;2024-03-07T04:22:18;1.80;99.90
13186;DHT22;6658;53.080;7.428;2024-03-07T04:24:47;1.80;99.90
13186;DHT22;6658;53.080;7.428;2024-03-07T04:27:19;1.80;99.90
13186;DHT22;6658;53.080;7.428;2024-03-07T04:29:45;1.80;99.90
13186;DHT22;6658;53.080;7.428;2024-03-07T04:32:13;1.80;99.90
13186;DHT22;6658;53.080;7.428;2024-03-07T04:34:39;1.80;99.90
13186;DHT22;6658;53.080;7.428;2024-03-07T04:37:06;1.80;99.90
13186;DHT22;6658;53.080;7.428;2024-03-07T04:39:31;1.80;99.90
13186;DHT22;6658;53.080;7.428;2024-03-07T04:42:01;1.70;99.90
13186;DHT22;6658;53.080;7.428;2024-03-07T04:44:30;1.70;99.90
13186;DHT22;6658;53.080;7.428;2024-03-07T04:46:57;1.70;99.90
13186;DHT22;6658;53.080;7.428;2024-03-07T04:49:23;1.70;99.90
13186;DHT22;6658;53.080;7.428;2024-03-07T04:51:53;1.70;99.90
13186;DHT22;6658;53.080;7.428;2024-03-07T04:54:19;1.60;99.90
13186;DHT22;6658;53.080;7.428;2024-03-07T04:56:45;1.60;99.90
13186;DHT22;6658;53.080;7.428;2024-03-07T04:59:12;1.50;99.90
13186;DHT22;6658;53.080;7.428;2024-03-07T05:01:38;1.50;99.90
13186;DHT22;6658;53.080;7.428;2024-03-07T05:04:05;1.40;99.90
13186;DHT22;6658;53.080;7.428;2024-03-07T05:06:31;1.30;99.90
13186;DHT22;6658;53.080;7.428;2024-03-07T05:09:03;1.40;99.90
13186;DHT22;6658;53.080;7.428;2024-03-07T05:11:29;1.30;99.90
13186;DHT22;6658;53.080;7.428;2024-03-07T05:13:56;1.30;99.90
13186;DHT22;6658;53.080;7.428;2024-03-07T05:16:24;1.30;99.90
13186;DHT22;6658;53.080;7.428;2024-03-07T05:18:50;1.30;99.90
13186;DHT22;6658;53.080;7.428;2024-03-07T05:21:16;1.30;99.90
13186;DHT22;6658;53.080;7.428;2024-03-07T05:24:01;1.30;99.90
13186;DHT22;6658;53.080;7.428;2024-03-07T05:26:27;1.30;99.90
13186;DHT22;6658;53.080;7.428;2024-03-07T05:28:53;1.30;99.90
13186;DHT22;6658;53.080;7.428;2024-03-07T05:31:21;1.30;99.90
13186;DHT22;6658;53.080;7.428;2024-03-07T05:33:47;1.40;99.90
13186;DHT22;6658;53.080;7.428;2024-03-07T05:36:13;1.40;99.90
13186;DHT22;6658;53.080;7.428;2024-03-07T05:38:44;1.40;99.90
13186;DHT22;6658;53.080;7.428;2024-03-07T05:41:11;1.40;99.90
13186;DHT22;6658;53.080;7.428;2024-03-07T05:43:38;1.50;99.90
13186;DHT22;6658;53.080;7.428;2024-03-07T05:46:03;1.50;99.90
13186;DHT22;6658;53.080;7.428;2024-03-07T05:48:31;1.50;99.90
13186;DHT22;6658;53.080;7.428;2024-03-07T05:50:57;1.50;99.90
13186;DHT22;6658;53.080;7.428;2024-03-07T05:53:24;1.50;99.90
13186;DHT22;6658;53.080;7.428;2024-03-07T05:55:50;1.50;99.90
13186;DHT22;6658;53.080;7.428;2024-03-07T05:58:16;1.60;99.90
13186;DHT22;6658;53.080;7.428;2024-03-07T06:00:47;1.60;99.90
13186;DHT22;6658;53.080;7.428;2024-03-07T06:03:19;1.60;99.90
13186;DHT22;6658;53.080;7.428;2024-03-07T06:05:49;1.60;99.90
13186;DHT22;6658;53.080;7.428;2024-03-07T06:08:16;1.60;99.90
13186;DHT22;6658;53.080;7.428;2024-03-07T06:10:44;1.60;99.90
13186;DHT22;6658;53.080;7.428;2024-03-07T06:13:14;1.60;99.90
13186;DHT22;6658;53.080;7.428;2024-03-07T06:15:43;1.60;99.90
13186;DHT22;6658;53.080;7.428;2024-03-07T06:18:09;1.60;99.90
13186;DHT22;6658;53.080;7.428;2024-03-07T06:20:36;1.60;99.90
13186;DHT22;6658;53.080;7.428;2024-03-07T06:23:03;1.60;99.90
13186;DHT22;6658;53.080;7.428;2024-03-07T06:25:32;1.50;99.90
13186;DHT22;6658;53.080;7.428;2024-03-07T06:28:16;1.50;99.90
13186;DHT22;6658;53.080;7.428;2024-03-07T06:30:44;1.50;99.90
13186;DHT22;6658;53.080;7.428;2024-03-07T06:33:13;1.50;99.90
13186;DHT22;6658;53.080;7.428;2024-03-07T06:35:40;1.60;99.90
13186;DHT22;6658;53.080;7.428;2024-03-07T06:38:07;1.50;99.90
13186;DHT22;6658;53.080;7.428;2024-03-07T06:40:37;1.50;99.90
13186;DHT22;6658;53.080;7.428;2024-03-07T06:43:03;1.50;99.90
13186;DHT22;6658;53.080;7.428;2024-03-07T06:45:36;1.50;99.90
13186;DHT22;6658;53.080;7.428;2024-03-07T06:48:04;1.50;99.90
13186;DHT22;6658;53.080;7.428;2024-03-07T06:50:30;1.50;99.90
13186;DHT22;6658;53.080;7.428;2024-03-07T06:52:56;1.60;99.90
13186;DHT22;6658;53.080;7.428;2024-03-07T06:55:24;1.60;99.90
13186;DHT22;6658;53.080;7.428;2024-03-07T06:57:50;1.60;99.90
13186;DHT22;6658;53.080;7.428;2024-03-07T07:00:16;1.60;99.90
13186;DHT22;6658;53.080;7.428;2024-03-07T07:02:50;1.70;99.90
13186;DHT22;6658;53.080;7.428;2024-03-07T07:05:18;1.70;99.90
13186;DHT22;6658;53.080;7.428;2024-03-07T07:07:47;1.70;99.90
13186;DHT22;6658;53.080;7.428;2024-03-07T07:10:14;1.70;99.90
13186;DHT22;6658;53.080;7.428;2024-03-07T07:12:49;1.70;99.90
13186;DHT22;6658;53.080;7.428;2024-03-07T07:15:18;1.80;99.90
13186;DHT22;6658;53.080;7.428;2024-03-07T07:17:46;1.80;99.90
13186;DHT22;6658;53.080;7.428;2024-03-07T07:20:15;1.80;99.90
13186;DHT22;6658;53.080;7.428;2024-03-07T07:22:46;1.90;99.90
13186;DHT22;6658;53.080;7.428;2024-03-07T07:25:12;1.90;99.90
13186;DHT22;6658;53.080;7.428;2024-03-07T07:27:47;2.00;99.90
13186;DHT22;6658;53.080;7.428;2024-03-07T07:30:15;2.00;99.90
13186;DHT22;6658;53.080;7.428;2024-03-07T07:32:41;2.00;99.90
13186;DHT22;6658;53.080;7.428;2024-03-07T07:35:09;2.00;99.90
13186;DHT22;6658;53.080;7.428;2024-03-07T07:37:44;2.00;99.90
13186;DHT22;6658;53.080;7.428;2024-03-07T07:40:13;2.00;99.90
13186;DHT22;6658;53.080;7.428;2024-03-07T07:42:42;2.00;99.90
13186;DHT22;6658;53.080;7.428;2024-03-07T07:45:09;2.10;99.90
13186;DHT22;6658;53.080;7.428;2024-03-07T07:47:42;2.10;99.90
13186;DHT22;6658;53.080;7.428;2024-03-07T07:50:12;2.20;99.90
13186;DHT22;6658;53.080;7.428;2024-03-07T07:52:46;2.20;99.90
13186;DHT22;6658;53.080;7.428;2024-03-07T07:55:14;2.20;99.90
13186;DHT22;6658;53.080;7.428;2024-03-07T07:57:43;2.20;99.90
13186;DHT22;6658;53.080;7.428;2024-03-07T08:00:20;2.20;99.90
13186;DHT22;6658;53.080;7.428;2024-03-07T08:02:56;2.20;99.90
13186;DHT22;6658;53.080;7.428;2024-03-07T08:05:23;2.30;99.90
13186;DHT22;6658;53.080;7.428;2024-03-07T08:07:50;2.30;99.90
13186;DHT22;6658;53.080;7.428;2024-03-07T08:10:17;2.40;99.90
13186;DHT22;6658;53.080;7.428;2024-03-07T08:12:43;2.40;99.90
13186;DHT22;6658;53.080;7.428;2024-03-07T08:15:11;2.50;99.90
13186;DHT22;6658;53.080;7.428;2024-03-07T08:17:45;2.50;99.90
13186;DHT22;6658;53.080;7.428;2024-03-07T08:20:16;2.50;99.90
13186;DHT22;6658;53.080;7.428;2024-03-07T08:22:44;2.50;99.90
13186;DHT22;6658;53.080;7.428;2024-03-07T08:25:14;2.50;99.90
13186;DHT22;6658;53.080;7.428;2024-03-07T08:27:41;2.60;99.90
13186;DHT22;6658;53.080;7.428;2024-03-07T08:30:09;2.60;99.90
13186;DHT22;6658;53.080;7.428;2024-03-07T08:32:51;2.60;99.90
13186;DHT22;6658;53.080;7.428;2024-03-07T08:35:17;2.60;99.90
13186;DHT22;6658;53.080;7.428;2024-03-07T08:37:45;2.70;99.90
13186;DHT22;6658;53.080;7.428;2024-03-07T08:40:12;2.70;99.90
13186;DHT22;6658;53.080;7.428;2024-03-07T08:42:45;2.70;99.90
13186;DHT22;6658;53.080;7.428;2024-03-07T08:45:11;2.80;99.90
13186;DHT22;6658;53.080;7.428;2024-03-07T08:47:43;2.80;99.90
13186;DHT22;6658;53.080;7.428;2024-03-07T08:50:09;2.80;99.90
13186;DHT22;6658;53.080;7.428;2024-03-07T08:52:36;2.80;99.90
13186;DHT22;6658;53.080;7.428;2024-03-07T08:55:11;2.80;99.90
13186;DHT22;6658;53.080;7.428;2024-03-07T08:57:41;2.80;99.90
13186;DHT22;6658;53.080;7.428;2024-03-07T09:00:08;2.90;99.90
13186;DHT22;6658;53.080;7.428;2024-03-07T09:02:35;2.90;99.90
13186;DHT22;6658;53.080;7.428;2024-03-07T09:05:04;3.00;99.90
13186;DHT22;6658;53.080;7.428;2024-03-07T09:07:31;3.10;99.90
13186;DHT22;6658;53.080;7.428;2024-03-07T09:09:57;3.20;99.90
13186;DHT22;6658;53.080;7.428;2024-03-07T09:12:23;3.30;99.90
13186;DHT22;6658;53.080;7.428;2024-03-07T09:14:51;3.30;99.90
13186;DHT22;6658;53.080;7.428;2024-03-07T09:17:18;3.40;99.90
13186;DHT22;6658;53.080;7.428;2024-03-07T09:19:43;3.40;99.90
13186;DHT22;6658;53.080;7.428;2024-03-07T09:22:10;3.40;99.90
13186;DHT22;6658;53.080;7.428;2024-03-07T09:24:36;3.50;99.90
13186;DHT22;6658;53.080;7.428;2024-03-07T09:27:03;3.50;99.90
13186;DHT22;6658;53.080;7.428;2024-03-07T09:29:30;3.60;99.90
13186;DHT22;6658;53.080;7.428;2024-03-07T09:31:55;3.60;99.90
13186;DHT22;6658;53.080;7.428;2024-03-07T09:34:23;3.60;99.90
13186;DHT22;6658;53.080;7.428;2024-03-07T09:36:50;3.60;99.90
13186;DHT22;6658;53.080;7.428;2024-03-07T09:39:16;3.70;99.90
13186;DHT22;6658;53.080;7.428;2024-03-07T09:41:42;3.80;99.90
13186;DHT22;6658;53.080;7.428;2024-03-07T09:44:09;3.90;99.90
13186;DHT22;6658;53.080;7.428;2024-03-07T09:46:38;4.00;99.90
13186;DHT22;6658;53.080;7.428;2024-03-07T09:49:05;4.00;99.90
13186;DHT22;6658;53.080;7.428;2024-03-07T09:51:35;4.10;99.90
13186;DHT22;6658;53.080;7.428;2024-03-07T09:54:01;4.20;99.90
13186;DHT22;6658;53.080;7.428;2024-03-07T09:56:31;4.30;99.90
13186;DHT22;6658;53.080;7.428;2024-03-07T09:59:04;4.50;99.90
13186;DHT22;6658;53.080;7.428;2024-03-07T10:01:36;4.50;99.90
13186;DHT22;6658;53.080;7.428;2024-03-07T10:04:05;4.60;99.90
13186;DHT22;6658;53.080;7.428;2024-03-07T10:06:40;4.70;99.90
13186;DHT22;6658;53.080;7.428;2024-03-07T10:09:07;4.90;99.90
13186;DHT22;6658;53.080;7.428;2024-03-07T10:11:33;4.90;99.90
13186;DHT22;6658;53.080;7.428;2024-03-07T10:14:02;4.90;99.90
13186;DHT22;6658;53.080;7.428;2024-03-07T10:16:32;5.00;99.90
13186;DHT22;6658;53.080;7.428;2024-03-07T10:18:58;5.20;99.90
13186;DHT22;6658;53.080;7.428;2024-03-07T10:21:26;5.30;99.90
13186;DHT22;6658;53.080;7.428;2024-03-07T10:24:04;5.40;99.90
13186;DHT22;6658;53.080;7.428;2024-03-07T10:26:34;5.50;99.90
13186;DHT22;6658;53.080;7.428;2024-03-07T10:29:00;5.60;99.90
13186;DHT22;6658;53.080;7.428;2024-03-07T10:31:32;5.50;99.90
13186;DHT22;6658;53.080;7.428;2024-03-07T10:34:02;5.30;99.90
13186;DHT22;6658;53.080;7.428;2024-03-07T10:36:31;5.30;99.90
13186;DHT22;6658;53.080;7.428;2024-03-07T10:38:58;5.30;99.90
13186;DHT22;6658;53.080;7.428;2024-03-07T10:41:48;5.40;99.90
13186;DHT22;6658;53.080;7.428;2024-03-07T10:44:36;5.50;99.90
13186;DHT22;6658;53.080;7.428;2024-03-07T10:47:08;5.50;99.90
13186;DHT22;6658;53.080;7.428;2024-03-07T10:49:37;5.50;99.90
13186;DHT22;6658;53.080;7.428;2024-03-07T10:52:18;5.60;99.90
13186;DHT22;6658;53.080;7.428;2024-03-07T10:57:51;5.80;99.90
13186;DHT22;6658;53.080;7.428;2024-03-07T11:00:26;6.10;99.90
13186;DHT22;6658;53.080;7.428;2024-03-07T11:02:58;6.20;99.90
13186;DHT22;6658;53.080;7.428;2024-03-07T11:05:28;6.30;99.90
13186;DHT22;6658;53.080;7.428;2024-03-07T11:07:58;6.30;99.90
13186;DHT22;6658;53.080;7.428;2024-03-07T11:10:25;6.40;99.90
13186;DHT22;6658;53.080;7.428;2024-03-07T11:12:52;6.50;99.90
13186;DHT22;6658;53.080;7.428;2024-03-07T11:15:20;6.50;99.90
13186;DHT22;6658;53.080;7.428;2024-03-07T11:17:47;6.50;99.90
13186;DHT22;6658;53.080;7.428;2024-03-07T11:20:34;6.60;99.90
13186;DHT22;6658;53.080;7.428;2024-03-07T11:23:00;6.80;99.90
13186;DHT22;6658;53.080;7.428;2024-03-07T11:25:27;6.90;99.90
13186;DHT22;6658;53.080;7.428;2024-03-07T11:27:57;6.90;99.90
13186;DHT22;6658;53.080;7.428;2024-03-07T11:30:24;6.80;99.90
13186;DHT22;6658;53.080;7.428;2024-03-07T11:32:51;6.90;99.90
13186;DHT22;6658;53.080;7.428;2024-03-07T11:35:32;6.80;99.90
13186;DHT22;6658;53.080;7.428;2024-03-07T11:38:01;6.80;99.90
13186;DHT22;6658;53.080;7.428;2024-03-07T11:42:56;6.90;99.90
13186;DHT22;6658;53.080;7.428;2024-03-07T11:45:26;7.00;99.90
13186;DHT22;6658;53.080;7.428;2024-03-07T11:47:56;7.00;99.90
13186;DHT22;6658;53.080;7.428;2024-03-07T11:50:41;7.20;99.90
13186;DHT22;6658;53.080;7.428;2024-03-07T11:53:08;7.30;99.90
13186;DHT22;6658;53.080;7.428;2024-03-07T11:55:39;7.40;99.90
13186;DHT22;6658;53.080;7.428;2024-03-07T11:58:20;7.50;99.90
13186;DHT22;6658;53.080;7.428;2024-03-07T12:00:51;7.50;99.90
13186;DHT22;6658;53.080;7.428;2024-03-07T12:03:18;7.40;99.90
13186;DHT22;6658;53.080;7.428;2024-03-07T12:05:48;7.40;99.90
13186;DHT22;6658;53.080;7.428;2024-03-07T12:08:14;7.40;99.90
13186;DHT22;6658;53.080;7.428;2024-03-07T12:10:42;7.40;99.90
13186;DHT22;6658;53.080;7.428;2024-03-07T12:13:10;7.40;99.90
13186;DHT22;6658;53.080;7.428;2024-03-07T12:15:38;7.50;99.90
13186;DHT22;6658;53.080;7.428;2024-03-07T12:18:05;7.60;99.90
13186;DHT22;6658;53.080;7.428;2024-03-07T12:20:40;7.80;99.90
13186;DHT22;6658;53.080;7.428;2024-03-07T12:23:11;7.90;99.90
13186;DHT22;6658;53.080;7.428;2024-03-07T12:25:40;7.90;99.90
13186;DHT22;6658;53.080;7.428;2024-03-07T12:28:08;7.90;99.90
13186;DHT22;6658;53.080;7.428;2024-03-07T12:33:13;7.70;99.90
13186;DHT22;6658;53.080;7.428;2024-03-07T12:35:48;7.70;99.90
13186;DHT22;6658;53.080;7.428;2024-03-07T12:38:21;7.60;99.90
13186;DHT22;6658;53.080;7.428;2024-03-07T12:41:05;7.60;99.90
13186;DHT22;6658;53.080;7.428;2024-03-07T12:43:32;7.70;99.90
13186;DHT22;6658;53.080;7.428;2024-03-07T12:45:58;7.80;99.90
13186;DHT22;6658;53.080;7.428;2024-03-07T12:48:24;7.90;99.90
13186;DHT22;6658;53.080;7.428;2024-03-07T12:50:51;7.80;99.90
13186;DHT22;6658;53.080;7.428;2024-03-07T12:53:23;7.80;99.90
13186;DHT22;6658;53.080;7.428;2024-03-07T12:56:09;7.90;99.90
13186;DHT22;6658;53.080;7.428;2024-03-07T12:58:35;7.80;99.90
13186;DHT22;6658;53.080;7.428;2024-03-07T13:01:01;7.90;99.90
13186;DHT22;6658;53.080;7.428;2024-03-07T13:03:29;7.90;99.90
13186;DHT22;6658;53.080;7.428;2024-03-07T13:05:58;7.80;99.90
13186;DHT22;6658;53.080;7.428;2024-03-07T13:08:33;7.80;99.90
13186;DHT22;6658;53.080;7.428;2024-03-07T13:11:02;7.80;99.90
13186;DHT22;6658;53.080;7.428;2024-03-07T13:13:28;7.80;99.90
13186;DHT22;6658;53.080;7.428;2024-03-07T13:15:54;7.70;99.90
13186;DHT22;6658;53.080;7.428;2024-03-07T13:18:23;7.70;99.90
13186;DHT22;6658;53.080;7.428;2024-03-07T13:20:49;7.60;99.90
13186;DHT22;6658;53.080;7.428;2024-03-07T13:23:15;7.60;99.90
13186;DHT22;6658;53.080;7.428;2024-03-07T13:25:41;7.60;99.90
13186;DHT22;6658;53.080;7.428;2024-03-07T13:28:12;7.60;99.90
13186;DHT22;6658;53.080;7.428;2024-03-07T13:30:50;7.60;99.90
13186;DHT22;6658;53.080;7.428;2024-03-07T13:33:17;7.60;99.90
13186;DHT22;6658;53.080;7.428;2024-03-07T13:35:43;7.50;99.90
13186;DHT22;6658;53.080;7.428;2024-03-07T13:38:12;7.50;99.90
13186;DHT22;6658;53.080;7.428;2024-03-07T13:40:39;7.40;99.90
13186;DHT22;6658;53.080;7.428;2024-03-07T13:43:06;7.30;99.90
13186;DHT22;6658;53.080;7.428;2024-03-07T13:45:34;7.20;99.90
13186;DHT22;6658;53.080;7.428;2024-03-07T13:48:08;7.10;99.90
13186;DHT22;6658;53.080;7.428;2024-03-07T13:50:36;7.10;99.90
13186;DHT22;6658;53.080;7.428;2024-03-07T13:53:11;7.10;99.90
13186;DHT22;6658;53.080;7.428;2024-03-07T13:56:06;7.10;99.90
13186;DHT22;6658;53.080;7.428;2024-03-07T14:11:24;7.10;99.90
13186;DHT22;6658;53.080;7.428;2024-03-07T14:13:44;7.00;99.90
13186;DHT22;6658;53.080;7.428;2024-03-07T14:22:07;6.80;99.90
13186;DHT22;6658;53.080;7.428;2024-03-07T14:24:53;6.80;99.90
13186;DHT22;6658;53.080;7.428;2024-03-07T14:27:38;6.70;99.90
13186;DHT22;6658;53.080;7.428;2024-03-07T14:33:16;6.70;99.90
13186;DHT22;6658;53.080;7.428;2024-03-07T14:36:14;6.60;99.90
13186;DHT22;6658;53.080;7.428;2024-03-07T14:38:57;6.50;99.90
13186;DHT22;6658;53.080;7.428;2024-03-07T14:44:22;6.50;99.90
13186;DHT22;6658;53.080;7.428;2024-03-07T14:47:03;6.50;99.90
13186;DHT22;6658;53.080;7.428;2024-03-07T14:49:31;6.40;99.90
13186;DHT22;6658;53.080;7.428;2024-03-07T14:51:58;6.30;99.90
13186;DHT22;6658;53.080;7.428;2024-03-07T14:54:24;6.30;99.90
13186;DHT22;6658;53.080;7.428;2024-03-07T14:56:50;6.30;99.90
13186;DHT22;6658;53.080;7.428;2024-03-07T14:59:21;6.30;99.90
13186;DHT22;6658;53.080;7.428;2024-03-07T15:01:47;6.30;99.90
13186;DHT22;6658;53.080;7.428;2024-03-07T15:04:13;6.30;99.90
13186;DHT22;6658;53.080;7.428;2024-03-07T15:06:42;6.30;99.90
13186;DHT22;6658;53.080;7.428;2024-03-07T15:09:08;6.30;99.90
13186;DHT22;6658;53.080;7.428;2024-03-07T15:11:36;6.20;99.90
13186;DHT22;6658;53.080;7.428;2024-03-07T15:14:11;6.10;99.90
13186;DHT22;6658;53.080;7.428;2024-03-07T15:16:37;6.00;99.90
13186;DHT22;6658;53.080;7.428;2024-03-07T15:19:09;6.10;99.90
13186;DHT22;6658;53.080;7.428;2024-03-07T15:21:36;6.10;99.90
13186;DHT22;6658;53.080;7.428;2024-03-07T15:24:06;6.10;99.90
13186;DHT22;6658;53.080;7.428;2024-03-07T15:26:32;6.10;99.90
13186;DHT22;6658;53.080;7.428;2024-03-07T15:28:58;6.20;99.90
13186;DHT22;6658;53.080;7.428;2024-03-07T15:31:26;6.20;99.90
13186;DHT22;6658;53.080;7.428;2024-03-07T15:33:52;6.20;99.90
13186;DHT22;6658;53.080;7.428;2024-03-07T15:36:20;6.20;99.90
13186;DHT22;6658;53.080;7.428;2024-03-07T15:38:53;6.20;99.90
13186;DHT22;6658;53.080;7.428;2024-03-07T15:41:22;6.10;99.90
13186;DHT22;6658;53.080;7.428;2024-03-07T15:43:49;6.10;99.90
13186;DHT22;6658;53.080;7.428;2024-03-07T15:46:15;6.00;99.90
13186;DHT22;6658;53.080;7.428;2024-03-07T15:48:44;5.90;99.90
13186;DHT22;6658;53.080;7.428;2024-03-07T15:51:11;5.90;99.90
13186;DHT22;6658;53.080;7.428;2024-03-07T15:53:39;5.80;99.90
13186;DHT22;6658;53.080;7.428;2024-03-07T15:56:06;5.70;99.90
13186;DHT22;6658;53.080;7.428;2024-03-07T15:58:33;5.70;99.90
13186;DHT22;6658;53.080;7.428;2024-03-07T16:00:58;5.70;99.90
13186;DHT22;6658;53.080;7.428;2024-03-07T16:03:24;5.70;99.90
13186;DHT22;6658;53.080;7.428;2024-03-07T16:05:51;5.70;99.90
13186;DHT22;6658;53.080;7.428;2024-03-07T16:08:17;5.70;99.90
13186;DHT22;6658;53.080;7.428;2024-03-07T16:10:43;5.60;99.90
13186;DHT22;6658;53.080;7.428;2024-03-07T16:13:12;5.70;99.90
13186;DHT22;6658;53.080;7.428;2024-03-07T16:15:42;5.70;99.90
13186;DHT22;6658;53.080;7.428;2024-03-07T16:18:11;5.60;99.90
13186;DHT22;6658;53.080;7.428;2024-03-07T16:20:38;5.50;99.90
13186;DHT22;6658;53.080;7.428;2024-03-07T16:23:04;5.50;99.90
13186;DHT22;6658;53.080;7.428;2024-03-07T16:25:31;5.50;99.90
13186;DHT22;6658;53.080;7.428;2024-03-07T16:28:02;5.50;99.90
13186;DHT22;6658;53.080;7.428;2024-03-07T16:30:31;5.60;99.90
13186;DHT22;6658;53.080;7.428;2024-03-07T16:32:57;5.50;99.90
13186;DHT22;6658;53.080;7.428;2024-03-07T16:35:29;5.50;99.90
13186;DHT22;6658;53.080;7.428;2024-03-07T16:37:59;5.50;99.90
13186;DHT22;6658;53.080;7.428;2024-03-07T16:40:26;5.40;99.90
13186;DHT22;6658;53.080;7.428;2024-03-07T16:42:52;5.50;99.90
13186;DHT22;6658;53.080;7.428;2024-03-07T16:45:28;5.50;99.90
13186;DHT22;6658;53.080;7.428;2024-03-07T16:47:55;5.50;99.90
13186;DHT22;6658;53.080;7.428;2024-03-07T16:50:24;5.40;99.90
13186;DHT22;6658;53.080;7.428;2024-03-07T16:52:54;5.40;99.90
13186;DHT22;6658;53.080;7.428;2024-03-07T16:55:20;5.40;99.90
13186;DHT22;6658;53.080;7.428;2024-03-07T16:57:58;5.40;99.90
13186;DHT22;6658;53.080;7.428;2024-03-07T17:00:24;5.30;99.90
13186;DHT22;6658;53.080;7.428;2024-03-07T17:03:01;5.30;99.90